• Join FlightAware (Why Join?)
  • Login
  • US Flag 
06:49PM EDT


 

Airport Tracker/Info


-or-


 

Live Flight TrackerFlight Track Log ✈ CNS22 ✈ 13-May-2013 ✈ KSGJ - KBCT

Flight Track Log - Related Links

Times and Time Zones

All times are in EDT time to prevent confusion due to time zone crossing. See the CNS22 flight status page for this flight to view local times or setup timezone preferences in your user account.

Time Position Orientation Groundspeed Altitude Reporting Facility
EDT Latitude Longitude Course Direction KTS MPH feet Rate Location/Type
11:05AM 29.9692 -81.3558 North 139 160 800  Level Jacksonville Center
11:06AM 30.0169 -81.3478 North 170 196 2,500 1,440 Climbing Jacksonville Center
11:07AM 30.0669 -81.3206 25° Northeast 169 194 4,400 1,620 Climbing Jacksonville Center
11:08AM 30.0767 -81.2653 78° East 202 232 5,900 1,560 Climbing Jacksonville Center
11:09AM 30.0819 -81.2028 84° East 198 228 7,500 1,380 Climbing Jacksonville Center
11:10AM 30.0647 -81.1622 116° Southeast 207 238 8,400 1,320 Climbing Jacksonville Center
11:11AM 30.0225 -81.1294 146° Southeast 193 222 9,900 1,320 Climbing Jacksonville Center
11:12AM 29.9661 -81.1256 177° South 179 206 11,100 1,260 Climbing Jacksonville Center
11:13AM 29.9097 -81.1267 181° South 193 222 12,400 1,320 Climbing Jacksonville Center
11:14AM 29.8553 -81.1156 170° South 199 229 13,800 1,320 Climbing Jacksonville Center
11:15AM 29.8008 -81.0975 164° South 204 235 15,100 1,140 Climbing Jacksonville Center
11:16AM 29.7461 -81.0744 160° South 204 235 16,100 1,020 Climbing Jacksonville Center
11:17AM 29.6939 -81.0539 161° South 204 235 17,200 900 Climbing Jacksonville Center
11:18AM 29.6372 -81.0361 165° South 209 241 18,000 360 Climbing Jacksonville Center
11:19AM 29.5764 -81.0133 162° South 216 249 18,000  Level Jacksonville Center
11:20AM 29.5111 -80.9883 162° South 231 266 18,000  Level Jacksonville Center
11:21AM 29.4461 -80.9586 158° South 249 287 18,000  Level Jacksonville Center
11:22AM 29.3767 -80.9336 163° South 254 292 18,000  Level Jacksonville Center
11:23AM 29.3075 -80.9042 160° South 254 292 18,000  Level Jacksonville Center
11:24AM 29.2381 -80.8794 163° South 259 298 18,000  Level Jacksonville Center
11:24AM 29.1939 -80.8664 166° South 262 302 18,000  Level Miami Center
11:25AM 29.1236 -80.8403 162° South 267 307 18,000  Level Miami Center
11:26AM 29.0536 -80.8117 160° South 262 302 18,000  Level Miami Center
11:27AM 28.9856 -80.7878 163° South 262 302 18,000  Level Miami Center
11:28AM 28.9172 -80.7617 162° South 262 302 18,000  Level Miami Center
11:29AM 28.8492 -80.7356 161° South 262 302 18,000  Level Miami Center
11:30AM 28.7811 -80.7094 161° South 262 302 18,000  Level Miami Center
11:31AM 28.7150 -80.6811 159° South 262 302 18,000  Level Miami Center
11:32AM 28.6472 -80.6481 157° South 262 302 18,000 -60 Level Miami Center
11:33AM 28.5769 -80.6219 162° South 267 307 17,900 -240 Descending Miami Center
11:34AM 28.5044 -80.5936 161° South 267 307 17,600 -420 Descending Miami Center
11:36AM 28.4303 -80.5653 161° South 272 313 17,100 -540 Descending Miami Center
11:37AM 28.3436 -80.5294 160° South 277 319 16,500 -420 Descending Miami Center
11:38AM 28.2650 -80.5008 162° South 288 331 16,300 -480 Descending Miami Center
11:39AM 28.1906 -80.4703 160° South 288 331 15,600 -660 Descending Miami Center
11:40AM 28.1264 -80.4469 162° South 283 326 15,000 -660 Descending Miami Center
11:41AM 28.0519 -80.4211 163° South 283 326 14,300 -840 Descending Miami Center
11:42AM 27.9817 -80.3906 159° South 283 326 13,400 -840 Descending Miami Center
11:43AM 27.9156 -80.3675 163° South 266 306 12,700 -840 Descending Miami Center
11:44AM 27.8431 -80.3369 160° South 261 300 11,800 -840 Descending Miami Center
11:45AM 27.7750 -80.3114 162° South 256 295 11,100 -780 Descending Miami Center
11:46AM 27.7047 -80.2836 161° South 266 306 10,300 -780 Descending Miami Center
11:47AM 27.6425 -80.2583 160° South 266 306 9,600 -780 Descending Miami Center
11:48AM 27.5700 -80.2328 163° South 266 306 8,800 -900 Descending Miami Center
11:49AM 27.4956 -80.2025 160° South 266 306 7,900 -780 Descending Miami Center
11:50AM 27.4253 -80.1769 162° South 266 306 7,300 -480 Descending Miami Center
11:51AM 27.3567 -80.1633 170° South 261 300 7,000 -420 Descending Miami Center
11:52AM 27.2944 -80.1453 166° South 254 292 6,500 -360 Descending Miami Center
11:53AM 27.2258 -80.1314 170° South 259 298 6,300 -240 Descending Miami Center
11:54AM 27.1489 -80.1106 166° South 259 298 6,100 -300 Descending Miami Center
11:55AM 27.0783 -80.0969 170° South 259 298 5,700 -480 Descending Miami Center
11:56AM 27.0078 -80.0789 167° South 259 298 5,200 -360 Descending Miami Center
11:57AM 26.9494 -80.0656 168° South 254 292 5,000 -120 Descending Miami Center
11:58AM 26.8831 -80.0497 168° South 247 284 5,000  Level Miami Center
12:00PM 26.7666 -80.0750 186° South  Level FlightAware Approximate
12:07PM 26.3785 -80.1077 180° South  Level Estimated
12:08PM 26.3785 -80.1077 180° South  Level Estimated
12:09PM 26.3785 -80.1077 180° South  Level Estimated
12:10PM 26.3785 -80.1077 180° South  Level Estimated
12:11PM 26.3785 -80.1077 180° South  Level Estimated
12:12PM 26.3785 -80.1077 180° South  Level Estimated
12:13PM 26.3785 -80.1077 180° South  Level Estimated
12:14PM 26.3785 -80.1077 180° South  Level Estimated
12:15PM 26.3785 -80.1077 180° South  Level Estimated
12:16PM 26.3785 -80.1077 180° South  Level Estimated